createdAt,value
2023-04-18T00:00:54.976Z,9.47
2023-04-18T00:03:27.014Z,9.83
2023-04-18T00:05:58.912Z,9.54
2023-04-18T00:08:30.575Z,9.61
2023-04-18T00:11:02.439Z,9.70
2023-04-18T00:13:34.192Z,9.68
2023-04-18T00:16:06.274Z,9.56
2023-04-18T00:18:37.815Z,9.35
2023-04-18T00:21:09.412Z,9.63
2023-04-18T00:23:41.078Z,9.37
2023-04-18T00:26:13.074Z,9.29
2023-04-18T00:28:45.696Z,9.22
2023-04-18T00:31:17.298Z,9.08
2023-04-18T00:33:48.954Z,9.42
2023-04-18T00:36:20.592Z,8.95
2023-04-18T00:38:52.335Z,9.29
2023-04-18T00:41:23.917Z,9.16
2023-04-18T00:43:55.475Z,9.04
2023-04-18T00:46:27.634Z,8.94
2023-04-18T00:48:59.539Z,8.80
2023-04-18T00:51:31.200Z,8.88
2023-04-18T00:54:07.211Z,9.04
2023-04-18T00:56:39.034Z,8.82
2023-04-18T00:59:10.987Z,8.86
2023-04-18T01:01:44.443Z,8.93
2023-04-18T01:04:17.501Z,8.89
2023-04-18T01:06:49.550Z,8.79
2023-04-18T01:09:24.139Z,8.83
2023-04-18T01:11:57.523Z,8.64
2023-04-18T01:14:29.313Z,8.99
2023-04-18T01:17:00.969Z,9.13
2023-04-18T01:19:32.635Z,8.99
2023-04-18T01:22:04.329Z,9.10
2023-04-18T01:24:35.977Z,9.19
2023-04-18T01:27:11.355Z,9.09
2023-04-18T01:29:43.047Z,9.04
2023-04-18T01:32:15.172Z,9.04
2023-04-18T01:34:49.596Z,9.18
2023-04-18T01:37:21.652Z,9.38
2023-04-18T01:39:53.523Z,9.29
2023-04-18T01:42:25.359Z,9.57
2023-04-18T01:44:57.232Z,10.01
2023-04-18T01:47:29.399Z,9.32
2023-04-18T01:50:02.745Z,9.30
2023-04-18T01:52:35.010Z,9.43
2023-04-18T01:55:07.001Z,9.63
2023-04-18T01:57:40.650Z,9.64
2023-04-18T02:00:13.075Z,9.69
2023-04-18T02:02:47.772Z,9.75
2023-04-18T02:05:19.658Z,9.75
2023-04-18T02:07:51.452Z,9.71
2023-04-18T02:10:24.267Z,9.49
2023-04-18T02:12:56.119Z,9.76
2023-04-18T02:15:28.243Z,10.27
2023-04-18T02:18:00.372Z,9.94
2023-04-18T02:20:32.838Z,9.94
2023-04-18T02:23:06.834Z,9.90
2023-04-18T02:25:38.750Z,10.47
2023-04-18T02:28:11.606Z,10.71
2023-04-18T02:30:43.298Z,10.63
2023-04-18T02:33:15.193Z,10.14
2023-04-18T02:35:46.913Z,10.09
2023-04-18T02:38:20.897Z,9.95
2023-04-18T02:40:56.809Z,10.12
2023-04-18T02:43:28.407Z,10.03
2023-04-18T02:46:00.098Z,10.23
2023-04-18T02:48:32.241Z,10.12
2023-04-18T02:51:05.494Z,10.23
2023-04-18T02:53:39.727Z,10.08
2023-04-18T02:56:11.475Z,10.07
2023-04-18T02:59:03.359Z,10.19
2023-04-18T03:02:00.990Z,10.02
2023-04-18T03:04:33.113Z,10.33
2023-04-18T03:07:07.077Z,10.40
2023-04-18T03:09:41.614Z,10.50
2023-04-18T03:12:22.649Z,10.33
2023-04-18T03:14:54.259Z,10.15
2023-04-18T03:17:26.280Z,10.10
2023-04-18T03:19:57.887Z,10.32
2023-04-18T03:22:29.536Z,10.49
2023-04-18T03:25:02.238Z,10.45
2023-04-18T03:27:46.401Z,10.38
2023-04-18T03:30:21.226Z,10.68
2023-04-18T03:33:03.535Z,10.60
2023-04-18T03:35:35.548Z,10.53
2023-04-18T03:38:07.139Z,10.24
2023-04-18T03:40:42.273Z,9.87
2023-04-18T03:43:21.133Z,10.33
2023-04-18T03:45:53.108Z,10.24
2023-04-18T03:48:25.191Z,10.42
2023-04-18T03:50:57.506Z,10.83
2023-04-18T03:53:29.193Z,10.92
2023-04-18T03:56:01.109Z,10.70
2023-04-18T03:58:47.850Z,10.78
2023-04-18T04:01:19.771Z,10.58
2023-04-18T04:03:51.615Z,10.68
2023-04-18T04:06:24.359Z,10.44
2023-04-18T04:08:56.166Z,10.73
2023-04-18T04:11:30.450Z,11.09
2023-04-18T04:14:03.368Z,10.51
2023-04-18T04:16:43.007Z,10.57
2023-04-18T04:19:17.485Z,10.91
2023-04-18T04:21:58.478Z,10.67
2023-04-18T04:24:31.431Z,10.47
2023-04-18T04:27:03.332Z,10.80
2023-04-18T04:29:35.184Z,10.94
2023-04-18T04:32:07.677Z,11.13
2023-04-18T04:34:42.475Z,10.66
2023-04-18T04:37:16.443Z,10.55
2023-04-18T04:40:00.997Z,10.72
2023-04-18T04:42:48.328Z,10.37
2023-04-18T04:45:26.699Z,10.59
2023-04-18T04:47:59.437Z,10.29
2023-04-18T04:50:36.321Z,10.23
2023-04-18T04:53:08.925Z,10.69
2023-04-18T04:55:40.988Z,10.60
2023-04-18T04:58:13.006Z,10.86
2023-04-18T05:01:03.421Z,10.98
2023-04-18T05:03:37.437Z,10.66
2023-04-18T05:06:09.552Z,10.87
2023-04-18T05:08:41.150Z,10.45
2023-04-18T05:11:12.778Z,10.27
2023-04-18T05:13:44.637Z,11.14
2023-04-18T05:16:16.392Z,11.16
2023-04-18T05:18:47.996Z,10.58
2023-04-18T05:21:19.601Z,10.91
2023-04-18T05:23:51.256Z,11.30
2023-04-18T05:26:23.542Z,11.42
2023-04-18T05:28:55.163Z,11.74
2023-04-18T05:31:26.777Z,11.68
2023-04-18T05:33:59.021Z,11.24
2023-04-18T05:36:30.879Z,11.19
2023-04-18T05:39:02.564Z,10.81
2023-04-18T05:41:34.220Z,11.41
2023-04-18T05:44:16.872Z,11.64
2023-04-18T05:46:48.661Z,12.00
2023-04-18T05:49:20.634Z,12.49
2023-04-18T05:51:52.250Z,12.60
2023-04-18T05:54:24.278Z,13.25
2023-04-18T05:56:56.655Z,14.11
2023-04-18T05:59:28.302Z,14.97
2023-04-18T06:02:00.012Z,15.18
2023-04-18T06:04:32.044Z,15.99
2023-04-18T06:07:03.800Z,13.83
2023-04-18T06:09:35.631Z,13.90
2023-04-18T06:12:07.341Z,14.11
2023-04-18T06:14:39.037Z,13.89
2023-04-18T06:17:10.748Z,14.47
2023-04-18T06:19:42.484Z,15.65
2023-04-18T06:22:14.162Z,14.49
2023-04-18T06:24:45.966Z,15.10
2023-04-18T06:27:30.239Z,15.08
2023-04-18T06:30:04.284Z,14.14
2023-04-18T06:32:36.040Z,13.63
2023-04-18T06:35:08.023Z,13.16
2023-04-18T06:37:39.798Z,14.19
2023-04-18T06:40:11.966Z,14.15
2023-04-18T06:42:43.839Z,13.36
2023-04-18T06:45:15.766Z,12.99
2023-04-18T06:47:48.631Z,12.98
2023-04-18T06:50:22.202Z,12.76
2023-04-18T06:52:53.881Z,12.25
2023-04-18T06:55:25.624Z,12.19
2023-04-18T06:57:57.446Z,12.42
2023-04-18T07:00:29.579Z,12.39
2023-04-18T07:03:01.649Z,12.66
2023-04-18T07:05:33.553Z,13.23
2023-04-18T07:08:05.552Z,13.74
2023-04-18T07:10:37.670Z,14.03
2023-04-18T07:13:09.735Z,14.19
2023-04-18T07:15:41.530Z,14.97
2023-04-18T07:18:18.036Z,14.96
2023-04-18T07:20:55.295Z,15.21
2023-04-18T07:23:27.267Z,15.49
2023-04-18T07:25:59.001Z,15.60
2023-04-18T07:28:32.735Z,15.11
2023-04-18T07:31:04.645Z,15.68
2023-04-18T07:33:38.287Z,16.35
2023-04-18T07:36:10.056Z,16.48
2023-04-18T07:38:41.899Z,16.56
2023-04-18T07:41:13.622Z,15.98
2023-04-18T07:43:45.188Z,16.30
2023-04-18T07:46:16.874Z,16.69
2023-04-18T07:48:48.542Z,15.89
2023-04-18T07:51:20.560Z,15.76
2023-04-18T07:53:52.470Z,15.67
2023-04-18T07:56:24.370Z,16.03
2023-04-18T07:58:55.940Z,16.41
2023-04-18T08:01:27.537Z,17.28
2023-04-18T08:03:59.484Z,16.82
2023-04-18T08:06:31.124Z,16.76
2023-04-18T08:09:03.094Z,15.77
2023-04-18T08:11:35.159Z,17.17
2023-04-18T08:14:06.718Z,18.12
2023-04-18T08:16:39.231Z,17.64
2023-04-18T08:19:10.985Z,17.49
2023-04-18T08:21:42.735Z,17.53
2023-04-18T08:24:14.499Z,16.55
2023-04-18T08:26:46.156Z,16.95
2023-04-18T08:29:17.845Z,16.87
2023-04-18T08:31:49.631Z,17.43
2023-04-18T08:34:21.357Z,17.75
2023-04-18T08:36:53.013Z,17.65
2023-04-18T08:39:25.406Z,17.49
2023-04-18T08:41:59.647Z,17.01
2023-04-18T08:44:31.340Z,15.98
2023-04-18T08:47:03.212Z,17.13
2023-04-18T08:49:35.161Z,17.03
2023-04-18T08:52:13.044Z,17.50
2023-04-18T08:54:46.436Z,18.25
2023-04-18T08:57:19.282Z,17.55
2023-04-18T08:59:51.189Z,16.63
2023-04-18T09:02:36.634Z,16.58
2023-04-18T09:05:22.506Z,17.68
2023-04-18T09:07:55.701Z,16.97
2023-04-18T09:10:37.179Z,17.05
2023-04-18T09:13:08.853Z,16.03
2023-04-18T09:15:40.655Z,15.25
2023-04-18T09:18:12.456Z,16.11
2023-04-18T09:20:44.284Z,15.85
2023-04-18T09:23:23.392Z,16.42
2023-04-18T09:25:55.078Z,15.59
2023-04-18T09:28:26.758Z,15.74
2023-04-18T09:31:08.157Z,15.87
2023-04-18T09:33:51.066Z,15.77
2023-04-18T09:36:25.440Z,15.91
2023-04-18T09:38:57.443Z,15.84
2023-04-18T09:41:29.416Z,16.66
2023-04-18T09:44:13.954Z,15.92
2023-04-18T09:46:47.535Z,15.96
2023-04-18T09:49:20.512Z,16.32
2023-04-18T09:51:54.394Z,16.91
2023-04-18T09:54:32.749Z,16.37
2023-04-18T09:57:10.914Z,15.59
2023-04-18T09:59:54.931Z,16.40
2023-04-18T10:02:34.599Z,17.38
2023-04-18T10:05:08.421Z,17.01
2023-04-18T10:07:43.806Z,16.95
2023-04-18T10:10:16.234Z,16.12
2023-04-18T10:12:49.961Z,15.98
2023-04-18T10:15:24.606Z,15.89
2023-04-18T10:18:05.064Z,16.51
2023-04-18T10:20:41.199Z,16.79
2023-04-18T10:23:31.117Z,15.91
2023-04-18T10:26:07.451Z,15.97
2023-04-18T10:28:58.695Z,15.73
2023-04-18T10:31:39.260Z,16.36
2023-04-18T10:34:12.946Z,16.36
2023-04-18T10:37:04.478Z,16.43
2023-04-18T10:39:57.805Z,16.59
2023-04-18T10:43:01.965Z,16.38
2023-04-18T10:45:33.584Z,16.33
2023-04-18T10:48:27.915Z,16.78
2023-04-18T10:51:17.848Z,17.85
2023-04-18T10:53:56.134Z,17.46
2023-04-18T10:56:28.673Z,17.95
2023-04-18T10:59:02.828Z,17.01
2023-04-18T11:01:38.071Z,17.04
2023-04-18T11:04:14.242Z,17.35
2023-04-18T11:06:49.314Z,18.34
2023-04-18T11:09:20.940Z,17.76
2023-04-18T11:12:11.169Z,17.63
2023-04-18T11:14:49.645Z,17.04
2023-04-18T11:17:26.453Z,17.78
2023-04-18T11:20:02.340Z,17.93
2023-04-18T11:23:04.000Z,17.97
2023-04-18T11:25:35.867Z,18.99
2023-04-18T11:28:07.583Z,19.76
2023-04-18T11:30:41.369Z,19.87
2023-04-18T11:33:14.695Z,20.02
2023-04-18T11:35:46.906Z,20.25
2023-04-18T11:38:29.060Z,20.57
2023-04-18T11:41:02.659Z,20.27
2023-04-18T11:43:34.557Z,20.13
2023-04-18T11:46:06.237Z,20.98
2023-04-18T11:48:40.211Z,20.14
2023-04-18T11:51:32.429Z,20.95
2023-04-18T11:54:04.519Z,21.17
2023-04-18T11:56:36.934Z,20.50
2023-04-18T11:59:09.967Z,21.30
2023-04-18T12:01:41.870Z,21.09
2023-04-18T12:04:14.249Z,21.81
2023-04-18T12:06:50.817Z,21.72
2023-04-18T12:09:24.407Z,22.63
2023-04-18T12:12:00.982Z,22.46
2023-04-18T12:14:35.805Z,22.33
2023-04-18T12:17:07.448Z,23.07
2023-04-18T12:19:43.950Z,22.65
2023-04-18T12:22:15.832Z,21.96
2023-04-18T12:25:13.315Z,21.83
2023-04-18T12:27:49.668Z,21.46
2023-04-18T12:30:30.522Z,21.60
2023-04-18T12:33:03.920Z,22.62
2023-04-18T12:35:35.849Z,22.52
2023-04-18T12:38:07.908Z,22.28
2023-04-18T12:40:40.386Z,22.76
2023-04-18T12:43:12.037Z,22.84
2023-04-18T12:45:43.974Z,22.67
2023-04-18T12:48:15.584Z,21.95
2023-04-18T12:50:47.132Z,22.18
2023-04-18T12:53:18.660Z,21.74
2023-04-18T12:55:50.313Z,21.02
2023-04-18T12:58:21.934Z,21.36
2023-04-18T13:00:53.570Z,21.72
2023-04-18T13:03:25.600Z,22.20
2023-04-18T13:05:57.277Z,21.48
2023-04-18T13:08:29.183Z,21.81
2023-04-18T13:11:00.789Z,21.38
2023-04-18T13:13:34.462Z,21.59
2023-04-18T13:16:07.549Z,21.89
2023-04-18T13:18:39.218Z,21.68
2023-04-18T13:21:10.919Z,21.95
2023-04-18T13:23:42.515Z,22.05
2023-04-18T13:26:14.128Z,21.86
2023-04-18T13:28:45.782Z,21.25
2023-04-18T13:31:17.394Z,21.32
2023-04-18T13:33:48.963Z,21.13
2023-04-18T13:36:20.595Z,21.53
2023-04-18T13:38:52.552Z,21.26
2023-04-18T13:41:24.239Z,21.50
2023-04-18T13:43:56.079Z,21.95
2023-04-18T13:46:27.824Z,21.33
2023-04-18T13:48:59.628Z,21.64
2023-04-18T13:51:31.318Z,22.14
2023-04-18T13:54:03.875Z,21.38
2023-04-18T13:56:35.577Z,21.83
2023-04-18T13:59:07.677Z,21.82
2023-04-18T14:01:39.524Z,21.48
2023-04-18T14:04:11.593Z,20.59
2023-04-18T14:06:43.457Z,20.60
2023-04-18T14:09:15.568Z,21.18
2023-04-18T14:11:47.451Z,20.77
2023-04-18T14:14:19.454Z,20.96
2023-04-18T14:16:51.223Z,21.12
2023-04-18T14:19:23.089Z,21.15
2023-04-18T14:21:54.838Z,20.53
2023-04-18T14:24:26.691Z,20.91
2023-04-18T14:26:58.415Z,21.28
2023-04-18T14:29:30.198Z,20.83
2023-04-18T14:32:02.103Z,20.86
2023-04-18T14:34:35.328Z,20.76
2023-04-18T14:37:08.464Z,20.99
2023-04-18T14:39:40.424Z,20.77
2023-04-18T14:42:12.425Z,21.28
2023-04-18T14:44:44.154Z,20.85
2023-04-18T14:47:15.995Z,20.98
2023-04-18T14:49:47.873Z,21.16
2023-04-18T14:52:19.689Z,21.25
2023-04-18T14:54:52.557Z,20.97
2023-04-18T14:57:25.409Z,21.24
2023-04-18T14:59:57.196Z,21.26
2023-04-18T15:02:29.349Z,21.79
2023-04-18T15:05:01.310Z,21.71
2023-04-18T15:07:34.472Z,21.97
2023-04-18T15:10:07.156Z,21.32
2023-04-18T15:12:39.169Z,21.02
2023-04-18T15:15:11.133Z,21.17
2023-04-18T15:17:42.767Z,21.18
2023-04-18T15:20:14.441Z,21.28
2023-04-18T15:22:46.055Z,21.27
2023-04-18T15:25:17.815Z,21.74
2023-04-18T15:27:49.678Z,22.89
2023-04-18T15:30:21.427Z,24.84
2023-04-18T15:32:53.055Z,25.43
2023-04-18T15:35:24.993Z,26.95
2023-04-18T15:37:57.003Z,27.80
2023-04-18T15:40:28.721Z,28.09
2023-04-18T15:43:00.376Z,27.53
2023-04-18T15:45:33.390Z,27.76
2023-04-18T15:48:05.216Z,27.23
2023-04-18T15:50:36.826Z,26.97
2023-04-18T15:53:08.434Z,27.40
2023-04-18T15:55:39.972Z,27.55
2023-04-18T15:58:11.599Z,27.32
2023-04-18T16:00:43.221Z,26.16
2023-04-18T16:03:14.901Z,26.21
2023-04-18T16:05:46.653Z,26.34
2023-04-18T16:08:18.246Z,27.27
2023-04-18T16:10:52.114Z,26.00
2023-04-18T16:13:23.829Z,26.15
2023-04-18T16:15:55.572Z,25.93
2023-04-18T16:18:27.150Z,24.06
2023-04-18T16:20:58.902Z,23.86
2023-04-18T16:23:31.637Z,22.96
2023-04-18T16:26:03.427Z,21.94
2023-04-18T16:28:35.164Z,21.55
2023-04-18T16:31:07.055Z,20.56
2023-04-18T16:33:38.835Z,20.43
2023-04-18T16:36:10.681Z,20.30
2023-04-18T16:38:42.412Z,19.70
2023-04-18T16:41:14.282Z,19.27
2023-04-18T16:43:46.081Z,18.97
2023-04-18T16:46:18.162Z,19.48
2023-04-18T16:48:51.790Z,19.44
2023-04-18T16:51:24.750Z,18.85
2023-04-18T16:53:56.541Z,18.86
2023-04-18T16:56:29.165Z,18.92
2023-04-18T16:59:00.826Z,18.56
2023-04-18T17:01:32.883Z,18.39
2023-04-18T17:04:05.252Z,18.32
2023-04-18T17:06:37.190Z,17.54
2023-04-18T17:09:08.811Z,18.17
2023-04-18T17:11:41.920Z,18.32
2023-04-18T17:14:14.439Z,18.06
2023-04-18T17:16:46.345Z,17.85
2023-04-18T17:19:18.153Z,18.15
2023-04-18T17:21:50.582Z,17.72
2023-04-18T17:24:22.719Z,17.35
2023-04-18T17:26:54.787Z,17.64
2023-04-18T17:29:26.703Z,17.48
2023-04-18T17:31:58.473Z,17.33
2023-04-18T17:34:30.338Z,17.17
2023-04-18T17:37:02.156Z,16.97
2023-04-18T17:39:34.774Z,17.53
2023-04-18T17:42:06.571Z,16.83
2023-04-18T17:44:38.447Z,16.71
2023-04-18T17:47:10.101Z,16.64
2023-04-18T17:49:41.704Z,17.00
2023-04-18T17:52:13.290Z,16.52
2023-04-18T17:54:44.935Z,16.57
2023-04-18T17:57:16.589Z,16.52
2023-04-18T17:59:48.299Z,16.03
2023-04-18T18:02:20.000Z,15.95
2023-04-18T18:04:51.600Z,15.62
2023-04-18T18:07:23.262Z,15.64
2023-04-18T18:09:54.859Z,15.49
2023-04-18T18:12:26.805Z,15.61
2023-04-18T18:14:58.373Z,15.54
2023-04-18T18:17:29.921Z,15.19
2023-04-18T18:20:01.586Z,15.22
2023-04-18T18:22:33.155Z,15.28
2023-04-18T18:25:05.144Z,14.94
2023-04-18T18:27:36.803Z,14.93
2023-04-18T18:30:08.820Z,14.81
2023-04-18T18:32:40.435Z,14.86
2023-04-18T18:35:12.438Z,14.79
2023-04-18T18:37:43.986Z,14.59
2023-04-18T18:40:16.072Z,14.65
2023-04-18T18:42:47.755Z,14.83
2023-04-18T18:45:19.596Z,14.65
2023-04-18T18:47:51.285Z,14.83
2023-04-18T18:50:23.072Z,14.93
2023-04-18T18:52:54.767Z,15.15
2023-04-18T18:55:26.449Z,14.63
2023-04-18T18:57:58.194Z,14.65
2023-04-18T19:00:30.441Z,14.67
2023-04-18T19:03:02.361Z,14.44
2023-04-18T19:05:36.326Z,14.49
2023-04-18T19:08:08.008Z,14.56
2023-04-18T19:10:41.681Z,14.60
2023-04-18T19:13:13.468Z,14.15
2023-04-18T19:15:45.381Z,14.24
2023-04-18T19:18:17.218Z,14.45
2023-04-18T19:20:50.381Z,14.46
2023-04-18T19:23:22.278Z,14.15
2023-04-18T19:25:54.019Z,14.15
2023-04-18T19:28:25.872Z,13.93
2023-04-18T19:30:57.540Z,13.80
2023-04-18T19:33:29.518Z,13.43
2023-04-18T19:36:01.248Z,13.74
2023-04-18T19:38:33.351Z,13.45
2023-04-18T19:41:05.343Z,13.52
2023-04-18T19:43:37.351Z,13.67
2023-04-18T19:46:09.166Z,13.97
2023-04-18T19:48:40.905Z,13.51
2023-04-18T19:51:12.871Z,13.23
2023-04-18T19:53:45.664Z,13.36
2023-04-18T19:56:17.464Z,13.52
2023-04-18T19:58:49.155Z,13.61
2023-04-18T20:01:21.419Z,13.58
2023-04-18T20:03:53.437Z,13.39
2023-04-18T20:06:26.346Z,13.57
2023-04-18T20:08:58.023Z,13.35
2023-04-18T20:11:30.297Z,13.33
2023-04-18T20:14:02.335Z,13.42
2023-04-18T20:16:34.198Z,13.34
2023-04-18T20:19:05.888Z,13.42
2023-04-18T20:21:37.606Z,13.48
2023-04-18T20:24:09.200Z,13.66
2023-04-18T20:26:40.798Z,13.44
2023-04-18T20:29:12.665Z,13.35
2023-04-18T20:31:44.415Z,13.31
2023-04-18T20:34:15.988Z,12.91
2023-04-18T20:36:47.586Z,13.00
2023-04-18T20:39:19.605Z,12.93
2023-04-18T20:41:51.345Z,12.83
2023-04-18T20:44:23.477Z,12.91
2023-04-18T20:46:55.079Z,12.98
2023-04-18T20:49:26.716Z,12.85
2023-04-18T20:51:58.273Z,12.83
2023-04-18T20:54:29.867Z,12.73
2023-04-18T20:57:01.673Z,12.86
2023-04-18T20:59:36.478Z,12.65
2023-04-18T21:02:08.506Z,12.67
2023-04-18T21:04:40.364Z,12.74
2023-04-18T21:07:12.351Z,12.86
2023-04-18T21:09:44.031Z,12.80
2023-04-18T21:12:15.845Z,12.76
2023-04-18T21:14:48.559Z,12.50
2023-04-18T21:17:20.252Z,12.42
2023-04-18T21:19:51.946Z,12.55
2023-04-18T21:22:23.786Z,12.62
2023-04-18T21:24:55.461Z,12.58
2023-04-18T21:27:27.368Z,12.71
2023-04-18T21:29:59.140Z,12.93
2023-04-18T21:32:31.202Z,12.70
2023-04-18T21:35:02.947Z,12.52
2023-04-18T21:37:34.722Z,12.97
2023-04-18T21:40:09.486Z,12.76
2023-04-18T21:42:41.361Z,12.67
2023-04-18T21:45:13.173Z,12.51
2023-04-18T21:47:44.845Z,12.64
2023-04-18T21:50:16.560Z,12.72
2023-04-18T21:52:48.377Z,12.53
2023-04-18T21:55:20.400Z,12.66
2023-04-18T21:57:52.077Z,12.73
2023-04-18T22:00:23.975Z,12.71
2023-04-18T22:02:55.973Z,12.44
2023-04-18T22:05:27.732Z,12.53
2023-04-18T22:07:59.528Z,12.62
2023-04-18T22:10:31.995Z,12.35
2023-04-18T22:13:03.963Z,12.62
2023-04-18T22:15:35.936Z,12.68
2023-04-18T22:18:08.871Z,12.76
2023-04-18T22:20:41.562Z,12.79
2023-04-18T22:23:14.448Z,12.84
2023-04-18T22:25:46.229Z,12.74
2023-04-18T22:28:18.219Z,12.21
2023-04-18T22:30:50.629Z,12.28
2023-04-18T22:33:22.570Z,12.24
2023-04-18T22:35:54.454Z,12.50
2023-04-18T22:38:26.555Z,12.46
2023-04-18T22:41:01.549Z,12.40
2023-04-18T22:43:33.645Z,12.10
2023-04-18T22:46:05.458Z,12.06
2023-04-18T22:48:37.384Z,12.10
2023-04-18T22:51:09.049Z,11.89
2023-04-18T22:53:40.695Z,12.25
2023-04-18T22:56:12.340Z,12.17
2023-04-18T22:58:43.997Z,12.31
2023-04-18T23:01:15.656Z,12.04
2023-04-18T23:03:47.528Z,12.04
2023-04-18T23:06:19.252Z,11.78
2023-04-18T23:08:50.789Z,11.94
2023-04-18T23:11:22.440Z,11.84
2023-04-18T23:13:54.156Z,11.72
2023-04-18T23:16:25.783Z,11.73
2023-04-18T23:18:57.415Z,11.38
2023-04-18T23:21:29.484Z,11.73
2023-04-18T23:24:01.271Z,11.87
2023-04-18T23:26:32.941Z,11.50
2023-04-18T23:29:04.835Z,11.68
2023-04-18T23:31:36.601Z,11.58
2023-04-18T23:34:09.978Z,11.58
2023-04-18T23:36:41.694Z,11.52
2023-04-18T23:39:13.357Z,11.76
2023-04-18T23:41:45.146Z,11.41
2023-04-18T23:44:16.965Z,11.61
2023-04-18T23:46:49.198Z,11.61
2023-04-18T23:49:20.915Z,11.40
2023-04-18T23:51:52.681Z,11.69
2023-04-18T23:54:24.454Z,11.71
2023-04-18T23:56:56.194Z,11.76
2023-04-18T23:59:27.861Z,11.61
